Flight Track Log - Related Links

Times and Time Zones

All times are in EDT time to prevent confusion due to time zone crossing. See the RPA3436 flight status page for this flight to view local times or setup timezone preferences in your user account.

Time Position Orientation Groundspeed Altitude Reporting Facility
EDT Latitude Longitude Course Direction KTS MPH feet Rate Location/Type
Tue 10:28:07 AM 38.9081 -77.0936 57° Northeast 181 208 3,000  Level Washington Center
Tue 10:29:00 AM 38.9616 -76.6987 67° East  Level FlightAware Approximate
Tue 10:29:08 AM 38.9575 -77.1453 321° Northwest 209 241 5,300  Level Washington Center
Tue 10:30:00 AM 39.0061 -76.5878 57° Northeast  Level FlightAware Approximate
Tue 10:30:06 AM 39.0178 -77.1678 344° North 220 253 8,200  Level Washington Center
Tue 10:31:00 AM 39.0497 -76.4759 63° Northeast  Level FlightAware Approximate
Tue 10:31:07 AM 39.0461 -77.0722 69° East 180 207 10,600  Level Washington Center
Tue 10:32:00 AM 39.0958 -76.3654 61° Northeast  Level FlightAware Approximate
Tue 10:32:07 AM 39.0600 -76.9550 81° East 257 296 12,500  Level Washington Center
Tue 10:33:00 AM 39.1250 -76.2500 57° Northeast  Level FlightAware Approximate
Tue 10:33:06 AM 39.0758 -76.8375 80° East 287 330 14,700  Level Washington Center
Tue 10:34:06 AM 39.0917 -76.7122 81° East 329 379 16,800 1,686 Climbing Washington Center
Tue 10:35:07 AM 39.1053 -76.5839 82° East 348 400 18,100 1,377 Climbing Washington Center
Tue 10:36:08 AM 39.1228 -76.4531 80° East 367 422 19,600 1,311 Climbing Washington Center
Tue 10:37:06 AM 39.1406 -76.3142 81° East 378 435 20,700 1,008 Climbing Washington Center
Tue 10:38:07 AM 39.1786 -76.1806 70° East 385 443 21,600 1,041 Climbing Washington Center
Tue 10:39:07 AM 39.2436 -76.0900 47° Northeast 389 448 22,800 1,240 Climbing Washington Center
Tue 10:40:08 AM 39.3192 -75.9858 47° Northeast 389 448 24,100 1,119 Climbing Washington Center
Tue 10:41:05 AM 39.4092 -75.8683 45° Northeast 394 453 25,000 415 Climbing Washington Center
Tue 10:42:18 AM 39.4989 -75.7394 48° Northeast 399 459 25,000  Level Washington Center
Tue 10:43:19 AM 39.5739 -75.6347 47° Northeast 399 459 25,000  Level Washington Center
Tue 10:44:19 AM 39.6511 -75.5269 47° Northeast 399 459 25,000  Level Washington Center
Tue 10:45:21 AM 39.7325 -75.4139 47° Northeast 416 479 25,000  Level New York Center
Tue 10:46:20 AM 39.8053 -75.3053 49° Northeast 392 451 25,000  Level New York Center
Tue 10:47:21 AM 39.8803 -75.1964 48° Northeast 398 458 25,000  Level New York Center
Tue 10:48:20 AM 39.9533 -75.0872 49° Northeast 403 464 25,000  Level New York Center
Tue 10:49:21 AM 40.0278 -74.9836 47° Northeast 398 458 25,000  Level New York Center
Tue 10:50:21 AM 40.0961 -74.8844 48° Northeast 398 458 25,000  Level New York Center
Tue 10:51:20 AM 40.1747 -74.7778 46° Northeast 403 464 25,000  Level New York Center
Tue 10:52:20 AM 40.2539 -74.6544 50° Northeast 397 457 25,000  Level New York Center
Tue 10:53:20 AM 40.3217 -74.5550 48° Northeast 397 457 25,000  Level New York Center
Tue 10:54:21 AM 40.3961 -74.4472 48° Northeast 397 457 25,000  Level New York Center
Tue 10:55:20 AM 40.4811 -74.3236 48° Northeast 397 457 25,000 -32 Level New York Center
Tue 10:57:28 AM 40.6356 -74.0947 48° Northeast 399 459 24,900 -323 Descending Boston Center
Tue 10:58:26 AM 40.7100 -73.9842 48° Northeast 404 465 24,000 -454 Descending Boston Center
Tue 10:59:27 AM 40.7867 -73.8736 47° Northeast 404 465 24,000  Level Boston Center
Tue 11:00:28 AM 40.8669 -73.7711 44° Northeast 404 465 24,000 -248 Level Boston Center
Tue 11:01:28 AM 40.9494 -73.6711 42° Northeast 398 458 23,500 -508 Descending Boston Center
Tue 11:02:26 AM 41.0317 -73.5764 41° Northeast 393 452 23,000 -1,006 Descending Boston Center
Tue 11:04:27 AM 41.2322 -73.5219 12° North 362 417 20,500 -1,154 Descending Boston Center
Tue 11:05:28 AM 41.3322 -73.5236 359° North 362 417 19,500 -744 Descending Boston Center
Tue 11:06:28 AM 41.4303 -73.5144 North 357 411 19,000 -1,322 Descending Boston Center
Tue 11:07:26 AM 41.5267 -73.4800 15° North 357 411 16,900 -2,200 Descending Boston Center
Tue 11:08:28 AM 41.6225 -73.4814 359° North 347 399 14,600 -2,459 Descending Boston Center
Tue 11:09:28 AM 41.7161 -73.4914 355° North 342 394 11,900 -1,831 Descending Boston Center
Tue 11:10:26 AM 41.8056 -73.4983 357° North 337 388 11,000 -458 Descending Boston Center
Tue 11:11:26 AM 41.8972 -73.5056 357° North 326 375 11,000  Level Boston Center
Tue 11:12:27 AM 41.9828 -73.5153 355° North 331 381 11,000  Level Boston Center
Tue 11:13:29 AM 42.0825 -73.5253 356° North 326 375 11,000  Level Boston Center
Tue 11:14:27 AM 42.1764 -73.5186 North 332 382 11,000 -252 Level Boston Center
Tue 11:15:28 AM 42.2594 -73.5678 336° Northwest 318 366 10,500 -807 Descending Boston Center
Tue 11:16:26 AM 42.3297 -73.6225 330° Northwest 305 351 9,400 -1,424 Descending Boston Center
Tue 11:17:26 AM 42.3936 -73.6714 331° Northwest 274 315 7,700 -1,835 Descending Boston Center
Tue 11:18:27 AM 42.4558 -73.7206 330° Northwest 267 307 5,700 -1,800 Descending Boston Center
Tue 11:19:36 AM 42.5197 -73.7697 330° Northwest 227 261 3,800 -1,191 Descending Boston Center
Tue 11:20:43 AM 42.5756 -73.8019 337° Northwest 182 209 3,000 -589 Descending Boston Center
Tue 11:21:28 AM 42.6131 -73.8028 359° North 186 214 2,700 -679 Descending Boston Center
Tue 11:22:29 AM 42.6611 -73.8036 359° North 181 208 1,800 -458 Descending Boston Center
Tue 11:23:26 AM 42.7025 -73.8272 337° Northwest 181 208 1,800  Level Boston Center

Login

Don't have an account? Register now (free) for customized features, flight alerts, and more!